MMIO 090553Z 18008KT 10SM SKC 15/07 A3019= 090553

MMIO 090454Z 18005KT 10SM SKC 15/07 A3021= 090454

MMIO 090352Z 00000KT 10SM SKC 16/07 A3019= 090352

MMIO 090248Z 00000KT 10SM SKC 16/07 A3016= 090248

MMIO 090158Z RTD 00000KT 10SM SKC 17/07 A3014= 090158

MMIO 090047Z 36005KT 10SM SKC 19/08 A3014 RMK CI= 090047

MMIO 082346Z 02008KT 10SM BKN200 21/09 A3012 RMK 8/008= 082347

MMIO 082251Z 36010KT 10SM BKN200 25/11 A3012 RMK 8/008= 082253

MMIO 082153Z 36010KT 10SM BKN200 27/12 A3015 RMK 8/008= 082154

MMIO 082057Z RTD 02010KT 10SM BKN200 27/12 A3018 RMK 8/008= 082058

MMIO 081845Z 00000KT 10SM BKN200 27/12 A3022 RMK 8/008= 081845

MMIO 081747Z 36005KT 10SM BKN200 26/12 A3021 RMK 8/008= 081747

MMIO 081641Z 00000KT 10SM BKN200 24/10 A3026 RMK 8/008= 081642

MMIO 081456Z 18006KT 10SM BKN200 17/09 A3025 RMK 8/008 S= 081456

MMIO 081348Z 18006KT 10SM SKC 13/09 A3022 RMK CI= 081349

MMIO 081242Z 00000KT 10SM SKC 12/05 A3021 RMK CI RTS= 081243

MMIO 080556Z 00000KT 10SM SKC 14/06 A3020= 080557

MMIO 080448Z 00000KT 10SM SKC 14/06 A3020= 080448

MMIO 080354Z 36006KT 10SM SKC 15/07 A3018= 080354

MMIO 080248Z 00000KT 10SM SKC 17/07 A3015= 080248

MMIO 080151Z 00000KT 10SM SKC 17/07 A3014= 080151

MMIO 080045Z 00000KT 10SM SCT200 19/08 A3010 RMK 8/008= 080045

MMIO 072351Z 00000KT 10SM BKN200 22/10 A3010 RMK 8/008= 072352

MMIO 072245Z 36008KT 10SM BKN200 24/12 A3012 RMK 8/008= 072245

MMIO 072156Z 36010KT 10SM BKN200 24/12 A3014 RMK 8/008= 072156

MMIO 072046Z 36012KT 10SM BKN200 24/12 A3016 RMK 8/008= 072046

MMIO 071949Z 36006KT 10SM BKN200 24/12 A3019 RMK 8/008 S= 071950

MMIO 071852Z 18006KT 10SM BKN200 24/12 A3022 RMK 8/008= 071853

MMIO 071800Z RTD 00000KT 10SM BKN200 22/11 A3021 RMK 8/008 S= 071801

MMIO 071649Z 18006KT 10SM BKN200 19/10 A3023 RMK 8/008 S= 071649

MMIO 071551Z 18006KT 10SM BKN200 16/09 A3023 RMK 8/008 S= 071552

MMIO 071448Z 00000KT 8SM BKN200 13/09 A3023 RMK 8/008 HZY= 071449

MMIO 071401Z RTD 00000KT 8SM SCT200 11/08 A3021 RMK 8/008 HZY= 071402

MMIO 071249Z 36005KT 8SM SCT200 11/08 A3020 RMK 8/008 HZY SC RTS= 071249

MMIO 070653Z 00000KT 6SM SCT007 OVC012 12/09 A3025 RMK 8/5// HZ= 070654

MMIO 070549Z 36008KT 6SM SCT007 BKN015 12/09 A3028 RMK 8/500 HZ= 070557

MMIO 070445Z 36006KT 6SM SCT012 OVC020 14/09 A3026 RMK 8/5// HZ= 070445

MMIO 070349Z 34010KT 6SM SCT012 OVC020 14/09 A3026 RMK 8/5// HZ= 070350

MMIO 070247Z 36006KT 6SM SCT012 BKN020 14/09 A3026 RMK 8/500 HZ= 070248

MMIO 070149Z 36012KT 8SM SKC 15/06 A3024 RMK HZY= 070149

MMIO 070055Z 36012KT 10SM SCT200 16/07 A3022 RMK 8/008= 070056

MMIO 062353Z 36015KT 10SM BKN200 18/08 A3020 RMK 8/008= 062353

MMIO 062249Z 02010KT 10SM BKN200 22/10 A3018 RMK 8/008= 062250

MMIO 062149Z 02010KT 10SM BKN200 25/10 A3018 RMK 8/008= 062150

MMIO 062050Z 36012KT 10SM BKN200 25/10 A3018 RMK 8/008= 062053

MMIO 061947Z 03008KT 10SM BKN200 25/10 A3026 RMK 8/008= 061949

MMIO 061852Z 35008KT 10SM BKN200 25/10 A3026 RMK 8/008= 061853

MMIO 061806Z RTD 00000KT 10SM BKN200 24/11 A3025 RMK 8/008 S= 061806

MMIO 061544Z 18006KT 10SM BKN200 22/11 A3027 RMK 8/008= 061545

MMIO 061454Z 18005KT 10SM BKN200 20/11 A3025 RMK 8/008 S= 061455